Time;durP1;ratioP1;P1;durP2;ratioP2;P2;SDS_P1;SDS_P2;PMS_P1;PMS_P2;Temp;Humidity;BMP_temperature;BMP_pressure;BME280_temperature;BME280_humidity;BME280_pressure;Samples;Min_cycle;Max_cycle;Signal;HPM_P1;HPM_P2
2023/02/03 00:01:21;;;;;;;10.30;3.85;;;;;;;8.90;100.00;102669.59;5248210;28;20062;-75
2023/02/03 00:03:52;;;;;;;18.35;3.80;;;;;;;8.88;100.00;102650.94;5260206;28;20186;-75
2023/02/03 00:06:23;;;;;;;8.68;3.63;;;;;;;8.85;100.00;102653.84;5246394;28;20119;-75
2023/02/03 00:08:58;;;;;;;11.68;3.30;;;;;;;8.85;100.00;102645.81;5263042;28;20697;-75
2023/02/03 00:11:29;;;;;;;13.43;3.30;;;;;;;8.88;100.00;102639.38;5257687;28;20048;-75
2023/02/03 00:14:00;;;;;;;15.20;3.70;;;;;;;8.88;100.00;102642.06;5247506;28;20090;-76
2023/02/03 00:16:30;;;;;;;13.40;3.30;;;;;;;8.89;100.00;102633.09;5261874;28;20016;-75
2023/02/03 00:19:01;;;;;;;9.85;3.72;;;;;;;8.89;100.00;102635.75;5247771;28;20365;-75
2023/02/03 00:21:32;;;;;;;11.77;2.92;;;;;;;8.87;100.00;102635.84;5261432;28;20020;-75
2023/02/03 00:24:02;;;;;;;12.57;3.67;;;;;;;8.87;100.00;102635.00;5260003;28;20035;-75
2023/02/03 00:26:33;;;;;;;11.77;3.65;;;;;;;8.89;100.00;102628.59;5245989;28;20029;-75
2023/02/03 00:29:03;;;;;;;16.00;3.67;;;;;;;8.86;100.00;102627.94;5248056;28;20029;-75
2023/02/03 00:31:34;;;;;;;14.95;4.18;;;;;;;8.82;100.00;102641.53;5259908;28;20096;-75
2023/02/03 00:34:05;;;;;;;11.52;4.07;;;;;;;8.87;100.00;102648.38;5247902;28;20068;-75
2023/02/03 00:36:35;;;;;;;14.30;3.70;;;;;;;8.87;100.00;102659.94;5251385;28;20065;-75
2023/02/03 00:39:06;;;;;;;11.25;3.97;;;;;;;8.86;100.00;102671.63;5267950;28;20024;-75
2023/02/03 00:41:36;;;;;;;8.57;3.78;;;;;;;8.87;100.00;102672.47;5253471;28;20557;-75
2023/02/03 00:44:07;;;;;;;15.73;4.88;;;;;;;8.85;100.00;102664.56;5255800;28;20067;-75
2023/02/03 00:46:38;;;;;;;13.15;3.83;;;;;;;8.83;100.00;102661.13;5245856;28;20021;-75
2023/02/03 00:49:09;;;;;;;16.23;4.45;;;;;;;8.81;100.00;102676.44;5248001;28;20024;-76
2023/02/03 00:51:39;;;;;;;12.18;3.90;;;;;;;8.86;100.00;102678.78;5245802;28;20050;-75
2023/02/03 00:54:10;;;;;;;12.20;4.18;;;;;;;8.87;100.00;102684.03;5262732;28;20054;-75
2023/02/03 00:56:40;;;;;;;11.57;3.67;;;;;;;8.88;100.00;102676.84;5267818;28;20094;-75
2023/02/03 00:59:11;;;;;;;11.65;4.43;;;;;;;8.87;100.00;102673.31;5255723;28;20449;-76
2023/02/03 01:01:41;;;;;;;18.02;4.10;;;;;;;8.84;100.00;102686.94;5267722;28;20031;-75
2023/02/03 01:04:12;;;;;;;11.85;3.80;;;;;;;8.83;100.00;102695.91;5249236;28;20083;-76
2023/02/03 01:06:42;;;;;;;19.08;4.10;;;;;;;8.90;100.00;102704.38;5246479;28;20021;-75
2023/02/03 01:09:13;;;;;;;11.90;3.17;;;;;;;8.99;100.00;102706.41;5260498;28;20100;-75
2023/02/03 01:11:43;;;;;;;15.35;3.72;;;;;;;8.98;100.00;102713.53;5246642;28;20017;-75
2023/02/03 01:14:14;;;;;;;9.20;2.83;;;;;;;9.00;100.00;102702.75;5246912;28;20035;-75
2023/02/03 01:16:44;;;;;;;14.07;3.50;;;;;;;9.02;100.00;102704.34;5263351;28;20024;-75
2023/02/03 01:19:15;;;;;;;13.52;2.70;;;;;;;9.01;100.00;102696.44;5267716;28;20020;-75
2023/02/03 01:21:46;;;;;;;9.45;2.67;;;;;;;8.97;100.00;102701.13;5250488;28;20025;-76
2023/02/03 01:24:16;;;;;;;31.15;3.70;;;;;;;8.94;100.00;102700.53;5255817;28;20054;-75
2023/02/03 01:26:47;;;;;;;13.30;2.80;;;;;;;8.99;100.00;102706.41;5262415;28;20021;-75
2023/02/03 01:29:17;;;;;;;9.60;3.22;;;;;;;8.96;100.00;102695.91;5246325;28;20380;-75
2023/02/03 01:31:48;;;;;;;12.60;2.90;;;;;;;8.98;100.00;102710.88;5250475;28;20027;-75
2023/02/03 01:34:18;;;;;;;9.25;3.15;;;;;;;8.97;100.00;102703.81;5255729;28;20515;-75
2023/02/03 01:36:49;;;;;;;11.80;2.80;;;;;;;8.99;100.00;102715.28;5246022;28;20477;-75
2023/02/03 01:39:19;;;;;;;12.88;2.75;;;;;;;9.07;100.00;102723.59;5246475;28;20111;-75
2023/02/03 01:41:50;;;;;;;12.75;3.00;;;;;;;9.10;100.00;102727.88;5265021;28;20073;-75
2023/02/03 01:44:39;;;;;;;10.48;2.58;;;;;;;9.05;100.00;102713.97;5253365;28;20020;-75
2023/02/03 01:47:15;;;;;;;12.85;2.75;;;;;;;9.07;100.00;102718.25;5266600;28;20031;-75
2023/02/03 01:50:05;;;;;;;18.30;3.22;;;;;;;9.05;100.00;102713.97;5260579;28;20111;-75
2023/02/03 01:52:39;;;;;;;16.25;2.88;;;;;;;9.03;100.00;102718.56;5261140;28;20033;-76
2023/02/03 01:55:16;;;;;;;12.35;2.95;;;;;;;9.01;100.00;102718.69;5257105;28;20029;-75
2023/02/03 01:57:52;;;;;;;13.32;3.30;;;;;;;8.97;100.00;102705.63;5245944;28;20046;-75
2023/02/03 02:00:23;;;;;;;16.85;2.72;;;;;;;8.96;100.00;102703.94;5258528;28;20016;-76
2023/02/03 02:02:57;;;;;;;14.65;2.97;;;;;;;8.97;100.00;102709.16;5246830;28;20043;-75
2023/02/03 02:05:47;;;;;;;8.45;2.40;;;;;;;8.94;100.00;102700.53;5245811;28;20024;-75
2023/02/03 02:08:21;;;;;;;15.77;2.60;;;;;;;8.93;100.00;102710.34;5244066;28;20103;-75
2023/02/03 02:10:52;;;;;;;7.43;2.60;;;;;;;8.93;100.00;102702.31;5244027;28;20020;-78
2023/02/03 02:13:23;;;;;;;17.33;2.22;;;;;;;8.91;100.00;102712.28;5246016;28;20028;-75
2023/02/03 02:16:30;;;;;;;10.45;2.60;;;;;;;8.94;100.00;102717.44;5255090;28;20541;-75
2023/02/03 02:19:38;;;;;;;14.35;3.08;;;;;;;8.91;100.00;102698.06;5266718;28;20710;-75
2023/02/03 02:22:18;;;;;;;15.77;2.97;;;;;;;8.88;100.00;102682.19;5266689;28;20055;-75
2023/02/03 02:24:59;;;;;;;10.23;2.60;;;;;;;8.93;100.00;102677.38;5253423;28;20016;-75
2023/02/03 02:28:01;;;;;;;12.55;2.67;;;;;;;8.92;100.00;102662.28;5254111;28;20491;-75
2023/02/03 02:31:09;;;;;;;14.88;2.75;;;;;;;8.89;100.00;102668.72;5258066;28;20031;-75
2023/02/03 02:33:43;;;;;;;13.70;2.85;;;;;;;8.94;100.00;102663.91;5245387;28;20400;-75
2023/02/03 02:36:34;;;;;;;10.27;2.33;;;;;;;8.94;100.00;102657.69;5259569;28;20098;-75
2023/02/03 02:39:15;;;;;;;11.55;2.38;;;;;;;8.91;100.00;102657.91;5246039;28;20033;-75
2023/02/03 02:41:55;;;;;;;8.02;1.75;;;;;;;8.88;100.00;102658.97;5245531;28;20446;-75
2023/02/03 02:44:32;;;;;;;11.90;2.42;;;;;;;8.87;100.00;102648.38;5245557;28;20465;-75
2023/02/03 02:47:11;;;;;;;10.90;2.40;;;;;;;8.88;100.00;102648.25;5245546;28;20024;-75
2023/02/03 02:49:47;;;;;;;8.73;3.00;;;;;;;8.91;100.00;102660.59;5246395;28;20017;-75
2023/02/03 02:52:29;;;;;;;12.27;2.42;;;;;;;8.94;100.00;102669.25;5245828;28;20066;-75
2023/02/03 02:55:06;;;;;;;14.40;2.40;;;;;;;8.93;100.00;102655.97;5246048;28;20016;-75
2023/02/03 02:57:38;;;;;;;13.98;2.45;;;;;;;8.96;100.00;102663.78;5244282;28;20028;-76
2023/02/03 03:00:11;;;;;;;16.02;2.45;;;;;;;8.93;100.00;102672.88;5256647;28;20024;-75
2023/02/03 03:02:41;;;;;;;13.15;2.53;;;;;;;8.91;100.00;102665.94;5253751;28;20035;-75
2023/02/03 03:05:12;;;;;;;9.55;2.00;;;;;;;8.96;100.00;102659.28;5251855;28;20028;-75
2023/02/03 03:07:50;;;;;;;11.05;2.38;;;;;;;8.94;100.00;102645.16;5243565;28;20108;-75
2023/02/03 03:10:27;;;;;;;15.90;2.35;;;;;;;8.93;100.00;102661.31;5245030;28;20138;-75
2023/02/03 03:13:03;;;;;;;11.45;2.30;;;;;;;8.90;100.00;102667.75;5245159;28;20103;-75
2023/02/03 03:15:36;;;;;;;17.15;2.20;;;;;;;8.93;100.00;102675.53;5247658;28;20028;-75
2023/02/03 03:18:14;;;;;;;7.00;2.15;;;;;;;8.94;100.00;102679.97;5244310;28;20024;-75
2023/02/03 03:20:47;;;;;;;14.32;2.17;;;;;;;8.92;100.00;102692.59;5244426;28;20055;-75
2023/02/03 03:23:26;;;;;;;11.25;2.35;;;;;;;8.90;100.00;102693.69;5244850;28;20118;-75
2023/02/03 03:26:06;;;;;;;11.40;2.17;;;;;;;8.89;100.00;102697.31;5244396;28;20032;-75
2023/02/03 03:28:45;;;;;;;9.65;1.75;;;;;;;8.88;100.00;102693.75;5244497;28;20036;-75
2023/02/03 03:31:18;;;;;;;13.07;1.83;;;;;;;8.94;100.00;102693.34;5244244;28;20036;-75
2023/02/03 03:33:49;;;;;;;8.00;1.73;;;;;;;8.97;100.00;102677.03;5243560;28;20093;-75
2023/02/03 03:36:41;;;;;;;7.78;1.65;;;;;;;8.92;100.00;102675.66;5242898;28;20475;-75
2023/02/03 03:39:21;;;;;;;10.57;2.40;;;;;;;8.93;100.00;102682.72;5243625;28;20029;-75
2023/02/03 03:41:56;;;;;;;24.33;2.40;;;;;;;8.91;100.00;102696.22;5243421;28;20032;-75
2023/02/03 03:44:34;;;;;;;15.30;2.67;;;;;;;8.95;100.00;102702.22;5243980;28;20024;-75
2023/02/03 03:47:38;;;;;;;14.88;2.28;;;;;;;8.89;100.00;102694.66;5233336;28;20045;-75
2023/02/03 03:50:14;;;;;;;6.78;1.77;;;;;;;8.89;100.00;102692.81;5244645;28;20035;-75
2023/02/03 03:52:48;;;;;;;8.75;1.90;;;;;;;8.91;100.00;102679.31;5244296;28;20177;-75
2023/02/03 03:55:19;;;;;;;9.55;1.95;;;;;;;8.90;100.00;102666.91;5244776;28;20024;-75
2023/02/03 03:57:58;;;;;;;8.52;1.80;;;;;;;8.91;100.00;102680.16;5244025;28;20028;-75
2023/02/03 04:00:32;;;;;;;14.70;2.20;;;;;;;8.94;100.00;102674.59;5244130;28;20028;-75
2023/02/03 04:03:10;;;;;;;9.17;2.00;;;;;;;8.91;100.00;102672.13;5251688;28;20032;-75
2023/02/03 04:05:41;;;;;;;22.25;2.72;;;;;;;8.89;100.00;102660.69;5251567;28;20024;-75
2023/02/03 04:08:12;;;;;;;14.43;2.20;;;;;;;8.89;100.00;102655.34;5254489;28;20020;-75
2023/02/03 04:10:43;;;;;;;9.48;1.75;;;;;;;8.85;100.00;102663.72;5244560;28;20105;-75
2023/02/03 04:13:14;;;;;;;11.80;2.03;;;;;;;8.86;100.00;102657.38;5255108;28;20039;-75
2023/02/03 04:15:45;;;;;;;8.88;2.08;;;;;;;8.87;100.00;102651.06;5254618;28;20023;-75
2023/02/03 04:18:16;;;;;;;14.05;4.55;;;;;;;8.86;100.00;102658.25;5264915;28;20039;-75
2023/02/03 04:20:46;;;;;;;8.32;2.08;;;;;;;8.91;100.00;102666.78;5243189;28;20071;-75
2023/02/03 04:23:17;;;;;;;12.10;2.03;;;;;;;8.88;100.00;102660.78;5244123;28;20476;-75
2023/02/03 04:25:47;;;;;;;8.32;1.90;;;;;;;8.88;100.00;102667.00;5243033;28;20056;-75
2023/02/03 04:28:18;;;;;;;7.43;1.65;;;;;;;8.88;100.00;102668.81;5243105;28;20056;-75
2023/02/03 04:30:48;;;;;;;10.00;1.70;;;;;;;8.86;100.00;102662.72;5245714;28;20020;-75
2023/02/03 04:33:19;;;;;;;17.92;3.65;;;;;;;8.82;100.00;102665.63;5246508;28;20107;-75
2023/02/03 04:35:49;;;;;;;9.43;1.83;;;;;;;8.84;100.00;102656.66;5247831;28;20154;-76
2023/02/03 04:38:20;;;;;;;11.68;2.30;;;;;;;8.81;100.00;102647.84;5247096;28;20119;-75
2023/02/03 04:40:50;;;;;;;7.63;1.73;;;;;;;8.81;100.00;102657.72;5247285;28;20029;-75
2023/02/03 04:43:21;;;;;;;5.55;1.90;;;;;;;8.81;100.00;102665.75;5247053;28;20069;-75
2023/02/03 04:45:51;;;;;;;7.22;1.90;;;;;;;8.86;100.00;102670.75;5247772;28;20439;-76
2023/02/03 04:48:22;;;;;;;8.30;2.20;;;;;;;8.88;100.00;102674.16;5247243;28;20024;-75
2023/02/03 04:50:52;;;;;;;9.90;1.80;;;;;;;8.93;100.00;102678.22;5247289;28;20107;-76
2023/02/03 04:53:23;;;;;;;6.32;1.50;;;;;;;8.88;100.00;102658.97;5246946;28;20091;-75
2023/02/03 04:55:53;;;;;;;11.38;1.98;;;;;;;8.88;100.00;102669.66;5247333;28;20032;-75
2023/02/03 04:58:25;;;;;;;10.60;1.98;;;;;;;8.87;100.00;102684.03;5246803;28;20028;-75
2023/02/03 05:00:56;;;;;;;15.35;1.77;;;;;;;8.86;100.00;102682.31;5260509;28;20025;-75
2023/02/03 05:03:26;;;;;;;6.68;1.60;;;;;;;8.86;100.00;102676.13;5258937;28;20027;-75
2023/02/03 05:05:57;;;;;;;4.00;1.40;;;;;;;8.86;100.00;102678.78;5248603;28;20404;-75
2023/02/03 05:08:29;;;;;;;10.05;2.03;;;;;;;8.82;100.00;102676.31;5246640;28;20036;-75
2023/02/03 05:11:00;;;;;;;6.95;1.42;;;;;;;8.92;100.00;102665.81;5246902;28;20032;-75
2023/02/03 05:13:30;;;;;;;7.15;1.88;;;;;;;8.91;100.00;102668.63;5247204;28;20385;-76
2023/02/03 05:16:01;;;;;;;5.47;1.40;;;;;;;8.91;100.00;102657.91;5258507;28;20020;-75
2023/02/03 05:18:31;;;;;;;11.25;3.25;;;;;;;8.87;100.00;102665.28;5251602;28;20031;-75
2023/02/03 05:21:02;;;;;;;23.25;10.65;;;;;;;8.85;100.00;102656.53;5246951;28;20028;-76
2023/02/03 05:23:33;;;;;;;13.07;3.35;;;;;;;8.85;100.00;102653.00;5246385;28;20166;-75
2023/02/03 05:26:03;;;;;;;11.07;2.33;;;;;;;8.91;100.00;102663.25;5246606;28;20025;-75
2023/02/03 05:28:34;;;;;;;8.90;3.28;;;;;;;8.91;100.00;102664.09;5245930;28;20107;-75
2023/02/03 05:31:04;;;;;;;15.63;6.57;;;;;;;8.88;100.00;102671.50;5246450;28;20499;-75
2023/02/03 05:33:35;;;;;;;18.83;9.55;;;;;;;8.86;100.00;102671.63;5246404;28;20025;-75
2023/02/03 05:36:06;;;;;;;29.23;11.82;;;;;;;8.86;100.00;102682.31;5245401;28;20484;-75
2023/02/03 05:38:36;;;;;;;48.42;23.75;;;;;;;8.87;100.00;102686.72;5246098;28;20074;-76
2023/02/03 05:43:59;;;;;;;27.42;8.98;;;;;;;8.90;100.00;102696.34;5246370;28;20110;-75
2023/02/03 05:46:30;;;;;;;22.55;8.10;;;;;;;8.88;100.00;102701.78;5264481;28;20134;-75
2023/02/03 05:49:00;;;;;;;28.85;13.95;;;;;;;8.93;100.00;102699.63;5254852;28;20107;-75
2023/02/03 05:51:31;;;;;;;12.65;4.25;;;;;;;8.90;100.00;102691.00;5245795;28;20530;-75
2023/02/03 05:54:01;;;;;;;59.08;27.55;;;;;;;8.86;100.00;102701.06;5246011;28;20028;-75
2023/02/03 05:56:32;;;;;;;22.58;14.30;;;;;;;8.88;100.00;102703.63;5258153;28;20025;-75
2023/02/03 05:59:03;;;;;;;13.23;8.13;;;;;;;8.90;100.00;102694.53;5249878;28;20031;-75
2023/02/03 06:01:34;;;;;;;22.30;10.38;;;;;;;8.90;100.00;102691.00;5256982;28;20032;-75
2023/02/03 06:04:05;;;;;;;17.77;5.55;;;;;;;8.90;100.00;102688.31;5259341;28;20401;-75
2023/02/03 06:06:36;;;;;;;19.65;6.82;;;;;;;8.94;100.00;102690.66;5245960;28;20027;-75
2023/02/03 06:09:07;;;;;;;22.92;9.00;;;;;;;8.92;100.00;102687.22;5245965;28;20036;-75
2023/02/03 06:11:38;;;;;;;30.20;13.05;;;;;;;8.92;100.00;102695.25;5246077;28;20424;-75
2023/02/03 06:14:08;;;;;;;9.32;5.78;;;;;;;8.91;100.00;102698.06;5258665;28;20044;-75
2023/02/03 06:16:38;;;;;;;11.48;6.25;;;;;;;8.89;100.00;102700.84;5262039;28;20074;-75
2023/02/03 06:19:09;;;;;;;8.68;2.97;;;;;;;8.91;100.00;102709.63;5246528;28;20036;-75
2023/02/03 06:21:39;;;;;;;15.05;6.20;;;;;;;8.94;100.00;102711.22;5245919;28;20066;-75
2023/02/03 06:24:10;;;;;;;7.05;1.55;;;;;;;8.87;100.00;102705.44;5246519;28;20091;-75
2023/02/03 06:26:40;;;;;;;11.05;1.63;;;;;;;8.88;100.00;102707.16;5245508;28;20025;-75
2023/02/03 06:29:11;;;;;;;9.73;3.60;;;;;;;8.88;100.00;102709.81;5245951;28;20126;-75
2023/02/03 06:31:41;;;;;;;6.22;2.95;;;;;;;8.92;100.00;102708.63;5259212;28;20025;-75
2023/02/03 06:34:12;;;;;;;5.35;2.10;;;;;;;8.98;100.00;102704.66;5245795;28;20110;-75
2023/02/03 06:36:43;;;;;;;6.20;2.55;;;;;;;8.97;100.00;102706.50;5244913;28;20027;-75
2023/02/03 06:39:13;;;;;;;9.43;2.65;;;;;;;8.96;100.00;102715.50;5245788;28;20150;-75
2023/02/03 06:41:44;;;;;;;8.73;2.53;;;;;;;8.98;100.00;102707.34;5245105;28;20115;-75
2023/02/03 06:44:14;;;;;;;7.93;3.70;;;;;;;8.97;100.00;102705.63;5257797;28;20032;-75
2023/02/03 06:46:45;;;;;;;45.55;17.52;;;;;;;8.97;100.00;102716.34;5244885;28;20025;-75
2023/02/03 06:49:16;;;;;;;78.30;31.02;;;;;;;8.95;100.00;102720.97;5244971;28;20024;-75
2023/02/03 06:51:46;;;;;;;37.85;16.27;;;;;;;8.94;100.00;102721.94;5243915;28;20028;-75
2023/02/03 06:54:17;;;;;;;22.88;10.77;;;;;;;8.96;100.00;102714.63;5243196;28;20028;-75
2023/02/03 06:56:47;;;;;;;14.82;5.00;;;;;;;8.95;100.00;102704.91;5244970;28;20052;-75
2023/02/03 06:59:18;;;;;;;11.57;4.20;;;;;;;8.95;100.00;102703.09;5250323;28;20484;-76
2023/02/03 07:01:48;;;;;;;11.85;2.90;;;;;;;9.01;100.00;102707.97;5254385;28;20103;-75
2023/02/03 07:04:19;;;;;;;10.75;3.13;;;;;;;9.02;100.00;102708.84;5258508;28;20021;-75
2023/02/03 07:06:49;;;;;;;12.40;3.72;;;;;;;9.05;100.00;102708.63;5244088;28;20025;-75
2023/02/03 07:09:20;;;;;;;9.10;3.38;;;;;;;9.03;100.00;102710.53;5251428;28;20479;-76
2023/02/03 07:11:50;;;;;;;25.40;8.95;;;;;;;9.01;100.00;102693.75;5251549;28;20024;-75
2023/02/03 07:14:21;;;;;;;30.05;10.30;;;;;;;9.01;100.00;102694.59;5244934;28;20537;-75
2023/02/03 07:16:53;;;;;;;18.15;8.25;;;;;;;9.03;100.00;102689.97;5260927;28;20380;-75
2023/02/03 07:19:23;;;;;;;24.10;12.48;;;;;;;9.04;100.00;102688.19;5244685;28;20031;-75
2023/02/03 07:21:54;;;;;;;9.43;4.72;;;;;;;9.07;100.00;102687.94;5246631;28;20032;-75
2023/02/03 07:24:25;;;;;;;10.30;3.03;;;;;;;9.07;100.00;102682.59;5260593;28;20173;-75
2023/02/03 07:26:55;;;;;;;8.32;4.15;;;;;;;9.10;100.00;102695.75;5245659;28;20025;-76
2023/02/03 07:29:26;;;;;;;11.38;3.25;;;;;;;9.10;100.00;102697.59;5243437;28;20506;-76
2023/02/03 07:31:56;;;;;;;11.73;6.18;;;;;;;9.13;100.00;102697.34;5243384;28;20047;-75
2023/02/03 07:34:28;;;;;;;6.35;2.75;;;;;;;9.21;100.00;102706.53;5243285;28;20032;-76
2023/02/03 07:36:58;;;;;;;2.35;1.50;;;;;;;9.21;100.00;102701.19;5241963;28;20052;-76
2023/02/03 07:39:30;;;;;;;14.38;2.10;;;;;;;9.20;100.00;102710.19;5243289;28;20461;-76
2023/02/03 07:42:00;;;;;;;6.70;1.50;;;;;;;9.21;100.00;102709.22;5229857;28;20085;-76
2023/02/03 07:44:31;;;;;;;6.07;1.48;;;;;;;9.24;100.00;102709.00;5256368;28;20024;-76
2023/02/03 07:47:01;;;;;;;4.93;2.15;;;;;;;9.24;100.00;102716.19;5253178;28;20030;-75
2023/02/03 07:49:32;;;;;;;10.20;3.33;;;;;;;9.24;100.00;102725.06;5246449;28;20081;-75
2023/02/03 07:52:03;;;;;;;7.22;2.00;;;;;;;9.27;100.00;102713.25;5243458;28;20108;-75
2023/02/03 07:54:33;;;;;;;12.55;3.67;;;;;;;9.25;100.00;102720.56;5242343;28;20050;-76
2023/02/03 07:57:03;;;;;;;9.80;2.78;;;;;;;9.24;100.00;102724.22;5242985;28;20103;-76
2023/02/03 07:59:34;;;;;;;7.78;2.20;;;;;;;9.25;100.00;102723.25;5242834;28;20025;-76
2023/02/03 08:02:04;;;;;;;9.50;1.70;;;;;;;9.23;100.00;102739.41;5243202;28;20038;-75
2023/02/03 08:04:35;;;;;;;10.65;2.00;;;;;;;9.32;100.00;102741.41;5256112;28;20128;-75
2023/02/03 08:07:06;;;;;;;14.10;1.60;;;;;;;9.26;100.00;102731.16;5246192;28;20024;-75
2023/02/03 08:09:36;;;;;;;11.30;1.83;;;;;;;9.27;100.00;102734.69;5245616;28;20048;-74
2023/02/03 08:12:07;;;;;;;8.85;2.30;;;;;;;9.29;100.00;102746.16;5246968;28;20115;-75
2023/02/03 08:14:37;;;;;;;13.88;2.03;;;;;;;9.27;100.00;102761.47;5234937;28;20107;-75
2023/02/03 08:17:08;;;;;;;7.55;1.70;;;;;;;9.29;100.00;102764.91;5263019;28;20070;-76
2023/02/03 08:19:38;;;;;;;7.80;2.25;;;;;;;9.32;100.00;102749.47;5246755;28;20027;-75
2023/02/03 08:22:14;;;;;;;7.82;1.90;;;;;;;9.35;100.00;102751.06;5246677;28;20101;-75
2023/02/03 08:24:46;;;;;;;9.10;3.13;;;;;;;9.40;100.00;102754.28;5246398;28;20052;-75
2023/02/03 08:27:20;;;;;;;5.00;2.08;;;;;;;9.40;100.00;102767.66;5246467;28;20039;-75
2023/02/03 08:29:51;;;;;;;14.65;3.00;;;;;;;9.45;100.00;102767.34;5246375;28;20055;-76
2023/02/03 08:32:21;;;;;;;24.85;13.95;;;;;;;9.49;100.00;102750.06;5246716;28;20656;-75
2023/02/03 08:34:52;;;;;;;11.13;4.30;;;;;;;9.51;100.00;102759.69;5246478;28;20016;-74
2023/02/03 08:37:24;;;;;;;11.48;3.35;;;;;;;9.47;100.00;102752.84;5246009;28;20043;-75
2023/02/03 08:39:54;;;;;;;8.35;2.20;;;;;;;9.49;100.00;102764.31;5245188;28;20028;-75
2023/02/03 08:42:25;;;;;;;11.13;2.33;;;;;;;9.52;100.00;102774.78;5246141;28;20504;-75
2023/02/03 08:44:55;;;;;;;7.13;1.83;;;;;;;9.53;100.00;102773.81;5245952;28;20369;-75
2023/02/03 08:47:26;;;;;;;6.13;1.70;;;;;;;9.53;100.00;102781.00;5245815;28;20509;-76
2023/02/03 08:49:57;;;;;;;7.60;2.22;;;;;;;9.44;100.00;102771.84;5244718;28;20036;-76
2023/02/03 08:52:27;;;;;;;6.95;1.83;;;;;;;9.48;100.00;102789.38;5245065;28;20377;-76
2023/02/03 08:54:58;;;;;;;6.75;1.92;;;;;;;9.51;100.00;102791.00;5245686;28;20024;-75
2023/02/03 08:57:47;;;;;;;7.93;2.55;;;;;;;9.50;100.00;102795.50;5245525;28;20040;-75
2023/02/03 09:00:18;;;;;;;5.50;1.85;;;;;;;9.56;100.00;102802.22;5258743;28;20405;-76
2023/02/03 09:02:49;;;;;;;10.23;1.90;;;;;;;9.58;100.00;102811.00;5253822;28;20500;-76
2023/02/03 09:05:20;;;;;;;7.50;1.73;;;;;;;9.61;100.00;102802.75;5243629;28;20035;-76
2023/02/03 09:07:50;;;;;;;9.00;1.73;;;;;;;9.59;100.00;102810.06;5245401;28;20389;-76
2023/02/03 09:10:21;;;;;;;7.60;2.38;;;;;;;9.53;100.00;102815.84;5244351;28;20058;-75
2023/02/03 09:12:51;;;;;;;11.25;1.98;;;;;;;9.55;100.00;102817.44;5245715;28;20024;-76
2023/02/03 09:15:22;;;;;;;5.68;2.17;;;;;;;9.53;100.00;102823.88;5250008;28;20020;-76
2023/02/03 09:17:54;;;;;;;9.48;2.35;;;;;;;9.51;100.00;102834.72;5264352;28;20149;-76
2023/02/03 09:20:24;;;;;;;8.35;2.90;;;;;;;9.48;100.00;102834.91;5247749;28;20027;-76
2023/02/03 09:22:58;;;;;;;9.75;2.25;;;;;;;9.50;100.00;102833.00;5244686;28;20028;-75
2023/02/03 09:25:28;;;;;;;6.68;2.10;;;;;;;9.60;100.00;102827.84;5243848;28;20020;-76
2023/02/03 09:28:01;;;;;;;10.00;2.28;;;;;;;9.61;100.00;102824.19;5243898;28;20201;-75
2023/02/03 09:30:32;;;;;;;7.15;2.45;;;;;;;9.64;100.00;102825.75;5243858;28;20047;-75
2023/02/03 09:33:02;;;;;;;9.90;2.70;;;;;;;9.65;100.00;102838.22;5244235;28;20028;-76
2023/02/03 09:35:33;;;;;;;11.20;3.47;;;;;;;9.64;100.00;102839.16;5245590;28;20043;-76
2023/02/03 09:38:03;;;;;;;8.43;2.72;;;;;;;9.60;100.00;102835.88;5258547;28;20028;-75
2023/02/03 09:40:37;;;;;;;4.38;2.63;;;;;;;9.64;100.00;102833.81;5244150;28;20055;-76
2023/02/03 09:43:23;;;;;;;8.32;2.58;;;;;;;9.69;100.00;102828.97;5244101;28;20035;-76
2023/02/03 09:45:53;;;;;;;9.27;2.65;;;;;;;9.66;100.00;102810.44;5237237;28;20074;-75
2023/02/03 09:48:28;;;;;;;13.38;3.35;;;;;;;9.70;100.00;102817.31;5245044;28;20074;-76
2023/02/03 09:50:58;;;;;;;5.85;2.58;;;;;;;9.72;100.00;102824.25;5245548;28;20532;-75
2023/02/03 09:53:38;;;;;;;7.70;2.80;;;;;;;9.72;100.00;102821.56;5245265;28;20032;-75
2023/02/03 09:56:24;;;;;;;8.32;3.35;;;;;;;9.74;100.00;102834.84;5245531;28;20031;-76
2023/02/03 09:58:55;;;;;;;8.32;2.90;;;;;;;9.75;100.00;102836.59;5258151;28;20024;-76
2023/02/03 10:01:49;;;;;;;5.70;3.08;;;;;;;9.77;100.00;102829.28;5245411;28;20070;-76
2023/02/03 10:04:36;;;;;;;16.40;3.13;;;;;;;9.76;100.00;102816.84;5245029;28;20124;-75
2023/02/03 10:07:18;;;;;;;10.80;2.92;;;;;;;9.76;100.00;102815.00;5244656;28;20612;-76
2023/02/03 10:10:02;;;;;;;9.93;2.90;;;;;;;9.78;100.00;102820.25;5255405;28;20024;-76
2023/02/03 10:13:21;;;;;;;7.28;3.00;;;;;;;9.79;100.00;102832.72;5244342;28;20032;-76
2023/02/03 10:16:17;;;;;;;20.00;6.47;;;;;;;9.87;100.00;102835.66;5247438;28;20020;-76
2023/02/03 10:18:52;;;;;;;9.43;4.90;;;;;;;9.89;100.00;102839.09;5244339;28;20397;-76
2023/02/03 10:21:38;;;;;;;25.67;9.57;;;;;;;9.92;100.00;102840.69;5244428;28;20542;-76
2023/02/03 10:24:15;;;;;;;12.65;4.65;;;;;;;9.96;100.00;102842.19;5244312;28;20086;-76
2023/02/03 10:26:46;;;;;;;12.98;2.65;;;;;;;10.04;100.00;102848.69;5243424;28;20028;-76
2023/02/03 10:29:25;;;;;;;8.38;2.90;;;;;;;10.09;100.00;102853.69;5244185;28;20435;-76
2023/02/03 10:31:56;;;;;;;9.07;3.33;;;;;;;10.12;100.00;102851.63;5244087;28;20131;-76
2023/02/03 10:34:26;;;;;;;8.85;4.50;;;;;;;10.17;100.00;102859.34;5242754;28;20093;-76
2023/02/03 10:37:05;;;;;;;12.90;4.53;;;;;;;10.17;100.00;102863.84;5243744;28;20023;-76
2023/02/03 10:39:56;;;;;;;9.85;3.10;;;;;;;10.16;100.00;102864.84;5243918;28;20052;-76
2023/02/03 10:43:46;;;;;;;12.00;3.35;;;;;;;10.18;100.00;102862.88;5244494;28;20147;-76
2023/02/03 10:45:20;;;;;;;11.30;3.45;;;;;;;10.15;100.00;102863.13;5243175;28;20020;-76
2023/02/03 10:47:54;;;;;;;11.35;3.75;;;;;;;10.16;100.00;102878.25;5243439;28;20028;-76
2023/02/03 10:50:30;;;;;;;8.32;2.65;;;;;;;10.16;100.00;102884.47;5243851;28;20100;-76
2023/02/03 10:53:22;;;;;;;9.55;2.67;;;;;;;10.17;100.00;102904.09;5244024;28;20396;-76
2023/02/03 10:56:13;;;;;;;12.57;4.10;;;;;;;10.15;100.00;102893.50;5242914;28;20460;-76
2023/02/03 10:58:58;;;;;;;6.95;3.20;;;;;;;10.12;100.00;102885.66;5243456;28;20081;-76
2023/02/03 11:01:42;;;;;;;10.32;3.33;;;;;;;10.15;100.00;102879.22;5243603;28;20410;-76
2023/02/03 11:04:32;;;;;;;8.25;2.85;;;;;;;10.16;100.00;102873.72;5241944;28;20031;-76
2023/02/03 11:07:07;;;;;;;12.63;2.65;;;;;;;10.20;100.00;102866.31;5243157;28;20032;-76
2023/02/03 11:09:40;;;;;;;10.18;3.13;;;;;;;10.19;100.00;102854.75;5243716;28;20504;-75
2023/02/03 11:12:29;;;;;;;5.97;2.88;;;;;;;10.28;100.00;102855.88;5243677;28;20070;-76
2023/02/03 11:15:04;;;;;;;9.88;2.70;;;;;;;10.35;100.00;102859.84;5244616;28;20019;-76
2023/02/03 11:17:35;;;;;;;10.20;4.10;;;;;;;10.37;100.00;102858.75;5242265;28;20053;-76
2023/02/03 11:20:27;;;;;;;6.93;4.10;;;;;;;10.53;100.00;102857.56;5243392;28;20028;-75
2023/02/03 11:22:59;;;;;;;8.15;3.83;;;;;;;10.59;100.00;102849.03;5242062;28;20481;-76
2023/02/03 11:25:32;;;;;;;11.52;3.35;;;;;;;10.65;100.00;102853.97;5243189;28;20598;-76
2023/02/03 11:28:05;;;;;;;9.50;3.72;;;;;;;10.66;100.00;102847.63;5241749;28;20028;-76
2023/02/03 11:30:37;;;;;;;10.10;3.58;;;;;;;10.79;100.00;102858.25;5242065;28;20035;-76
2023/02/03 11:33:26;;;;;;;6.20;2.45;;;;;;;10.82;100.00;102849.97;5241717;28;20058;-76
2023/02/03 11:35:58;;;;;;;14.15;4.32;;;;;;;10.79;100.00;102855.56;5243417;28;20100;-76
2023/02/03 11:38:31;;;;;;;8.48;3.15;;;;;;;10.75;100.00;102838.00;5242706;28;20388;-76
2023/02/03 11:41:02;;;;;;;14.13;4.72;;;;;;;10.68;100.00;102842.97;5245835;28;20508;-76
2023/02/03 11:43:32;;;;;;;13.52;4.35;;;;;;;10.61;100.00;102847.97;5247017;28;20047;-76
2023/02/03 11:46:08;;;;;;;16.60;4.00;;;;;;;10.59;100.00;102855.28;5247080;28;20029;-76
2023/02/03 11:48:54;;;;;;;16.88;4.80;;;;;;;10.51;100.00;102848.78;5247175;28;20137;-76
2023/02/03 11:51:39;;;;;;;13.00;3.65;;;;;;;10.48;100.00;102857.06;5247116;28;20035;-76
2023/02/03 11:54:44;;;;;;;7.03;2.85;;;;;;;10.50;100.00;102871.25;5246901;28;20078;-76